• Join FlightAware (Why Join?)
  • Login
  • US Flag 
Rudolph Flight #1: Arrived! 
07:59PM EST


 

Airport Tracker/Info


-or-


 

Live Flight TrackerFlight Track Log ✈ BJS542 ✈ 16-Aug-2013 ✈ CYYZ - KROC

Flight Track Log - Related Links

Times and Time Zones

All times are in EDT time to prevent confusion due to time zone crossing. See the BJS542 flight status page for this flight to view local times or setup timezone preferences in your user account.

Time Position Orientation Groundspeed Altitude Reporting Facility
EDT Latitude Longitude Course Direction KTS MPH feet Rate Location/Type
02:22PM 43.6500 -79.6167 115° Southeast 40 46 1,100  Level Toronto Center
02:23PM 43.6000 -79.6500 206° Southwest 250 288 4,400 2,400 Climbing Toronto Center
02:24PM 43.5333 -79.6833 200° South 270 311 6,000 780 Climbing Toronto Center
02:25PM 43.5000 -79.5833 115° Southeast 280 322 6,000  Level Toronto Center
02:26PM 43.5000 -79.4667 90° East 290 334 6,000  Level Toronto Center
02:27PM 43.4833 -79.3833 105° East 290 334 6,000 2,400 Level Toronto Center
02:28PM 43.4667 -79.2667 101° East 300 345 10,900 3,780 Climbing Toronto Center
02:29PM 43.4737 -78.8983 115° Southeast  Level Estimated
02:29PM 43.4500 -79.1333 100° East 330 380 13,700  Level Toronto Center
02:30PM 43.4333 -78.9833 99° East 360 414 17,300 2,640 Climbing Toronto Center
02:31PM 43.4000 -78.8500 109° East 380 437 19,000 960 Climbing Toronto Center
02:32PM 43.3589 -78.7817 130° Southeast 385 443 19,000  Level Cleveland Center
02:33PM 43.2903 -78.6467 125° Southeast 406 467 19,000 -4,020 Level Cleveland Center
02:34PM 43.2275 -78.5119 123° Southeast 423 487 11,000 -1,620 Descending Cleveland Center
02:34PM 43.2056 -78.4500 116° Southeast 398 458 16,600 4,200 Climbing Cleveland Center
02:35PM 43.1997 -78.3647 95° East 408 470 15,200 -2,700 Descending Cleveland Center
02:36PM 43.1822 -78.2258 100° East 388 447 12,600 -2,520 Descending Cleveland Center
02:37PM 43.1775 -78.0950 93° East 369 425 10,200 -2,100 Descending Cleveland Center
02:38PM 43.1772 -77.9897 90° East 336 387 8,400 360 Descending Cleveland Center
02:39PM 43.1789 -77.8814 89° East 299 344 11,000 -2,520 Climbing Cleveland Center
02:40PM 43.2017 -77.7864 72° East 274 315 3,400 -4,380 Descending Cleveland Center
02:41PM 43.1911 -77.6958 99° East 251 289 2,300 -960 Descending Cleveland Center
02:42PM 43.1525 -77.6492 139° Southeast 210 242 1,500 -900 Descending Cleveland Center
02:43PM 43.1178 -77.6736 207° Southwest 128 147 500 -1,020 Descending Cleveland Center
02:45PM 43.1167 -77.6667 North  Level FlightAware Approximate